createdAt,value
2023-01-19T00:00:51.394Z,7.80
2023-01-19T00:03:18.425Z,7.00
2023-01-19T00:05:45.568Z,5.97
2023-01-19T00:08:15.453Z,5.43
2023-01-19T00:10:44.777Z,7.30
2023-01-19T00:13:11.777Z,7.18
2023-01-19T00:15:38.560Z,7.32
2023-01-19T00:18:05.700Z,7.88
2023-01-19T00:20:32.809Z,6.43
2023-01-19T00:22:59.964Z,7.88
2023-01-19T00:25:27.045Z,7.20
2023-01-19T00:27:53.999Z,7.10
2023-01-19T00:30:20.711Z,7.57
2023-01-19T00:32:47.423Z,7.00
2023-01-19T00:35:14.249Z,7.80
2023-01-19T00:37:41.011Z,6.75
2023-01-19T00:40:08.678Z,7.47
2023-01-19T00:42:41.064Z,6.57
2023-01-19T00:45:09.860Z,5.68
2023-01-19T00:47:36.627Z,7.65
2023-01-19T00:50:03.669Z,6.28
2023-01-19T00:52:30.382Z,7.43
2023-01-19T00:54:57.088Z,7.05
2023-01-19T00:57:23.856Z,7.20
2023-01-19T00:59:50.506Z,7.53
2023-01-19T01:02:17.474Z,6.80
2023-01-19T01:04:44.270Z,6.53
2023-01-19T01:07:10.980Z,7.93
2023-01-19T01:09:37.664Z,6.20
2023-01-19T01:12:04.708Z,7.22
2023-01-19T01:14:32.899Z,7.35
2023-01-19T01:17:00.547Z,6.55
2023-01-19T01:19:27.378Z,7.15
2023-01-19T01:21:55.403Z,6.88
2023-01-19T01:24:22.344Z,7.25
2023-01-19T01:26:48.996Z,6.55
2023-01-19T01:29:15.763Z,7.28
2023-01-19T01:31:42.468Z,7.28
2023-01-19T01:34:09.184Z,7.13
2023-01-19T01:36:36.057Z,5.40
2023-01-19T01:39:03.651Z,7.72
2023-01-19T01:41:30.570Z,6.93
2023-01-19T01:43:58.846Z,7.50
2023-01-19T01:46:27.116Z,7.50
2023-01-19T01:49:13.346Z,7.05
2023-01-19T01:51:47.026Z,7.00
2023-01-19T01:54:19.377Z,7.18
2023-01-19T01:56:52.431Z,6.68
2023-01-19T01:59:34.599Z,6.72
2023-01-19T02:02:34.459Z,6.63
2023-01-19T02:05:12.207Z,6.78
2023-01-19T02:08:05.318Z,6.00
2023-01-19T02:10:52.235Z,7.05
2023-01-19T02:13:22.982Z,7.05
2023-01-19T02:16:02.933Z,6.93
2023-01-19T02:18:31.347Z,6.40
2023-01-19T02:21:22.688Z,6.55
2023-01-19T02:23:54.542Z,6.40
2023-01-19T02:26:30.989Z,5.93
2023-01-19T02:29:02.949Z,7.22
2023-01-19T02:31:31.592Z,6.50
2023-01-19T02:34:00.538Z,7.25
2023-01-19T02:36:35.182Z,6.78
2023-01-19T02:39:04.527Z,5.82
2023-01-19T02:41:38.779Z,6.97
2023-01-19T02:44:08.285Z,7.72
2023-01-19T02:46:35.747Z,8.00
2023-01-19T02:49:02.641Z,6.90
2023-01-19T02:51:29.608Z,7.30
2023-01-19T02:54:17.283Z,5.93
2023-01-19T02:57:12.289Z,6.72
2023-01-19T03:00:03.212Z,6.70
2023-01-19T03:02:52.927Z,6.80
2023-01-19T03:05:48.410Z,6.07
2023-01-19T03:08:26.805Z,5.97
2023-01-19T03:11:06.204Z,6.85
2023-01-19T03:13:44.062Z,6.85
2023-01-19T03:16:24.954Z,7.05
2023-01-19T03:18:55.571Z,7.03
2023-01-19T03:21:26.599Z,6.93
2023-01-19T03:23:56.924Z,6.30
2023-01-19T03:26:29.726Z,7.10
2023-01-19T03:29:00.295Z,7.57
2023-01-19T03:31:31.983Z,6.25
2023-01-19T03:34:06.786Z,6.38
2023-01-19T03:36:42.709Z,7.60
2023-01-19T03:39:11.261Z,6.13
2023-01-19T03:41:39.655Z,7.45
2023-01-19T03:44:07.515Z,7.32
2023-01-19T03:46:34.667Z,6.93
2023-01-19T03:49:01.185Z,7.88
2023-01-19T03:51:27.830Z,7.38
2023-01-19T03:53:54.305Z,7.60
2023-01-19T03:56:25.385Z,7.45
2023-01-19T03:58:56.284Z,7.85
2023-01-19T04:01:25.030Z,7.88
2023-01-19T04:03:53.042Z,8.65
2023-01-19T04:06:20.557Z,8.30
2023-01-19T04:08:51.229Z,8.30
2023-01-19T04:11:17.875Z,8.38
2023-01-19T04:13:44.807Z,8.60
2023-01-19T04:16:12.289Z,8.07
2023-01-19T04:18:39.000Z,9.13
2023-01-19T04:21:07.488Z,8.15
2023-01-19T04:23:34.766Z,6.47
2023-01-19T04:26:03.856Z,7.95
2023-01-19T04:28:30.464Z,7.95
2023-01-19T04:30:57.223Z,7.97
2023-01-19T04:33:24.354Z,8.07
2023-01-19T04:35:54.417Z,8.13
2023-01-19T04:38:21.621Z,7.95
2023-01-19T04:40:52.769Z,7.75
2023-01-19T04:43:20.498Z,8.35
2023-01-19T04:45:47.588Z,8.40
2023-01-19T04:48:14.741Z,7.82
2023-01-19T04:50:41.929Z,8.18
2023-01-19T04:53:08.776Z,9.25
2023-01-19T04:55:37.246Z,6.47
2023-01-19T04:58:04.119Z,8.43
2023-01-19T05:00:31.333Z,9.13
2023-01-19T05:02:58.263Z,8.70
2023-01-19T05:05:25.080Z,7.97
2023-01-19T05:07:51.807Z,7.40
2023-01-19T05:10:20.198Z,9.18
2023-01-19T05:12:46.891Z,8.27
2023-01-19T05:15:13.649Z,8.25
2023-01-19T05:17:40.290Z,9.25
2023-01-19T05:20:09.403Z,8.63
2023-01-19T05:22:36.141Z,8.75
2023-01-19T05:25:03.044Z,8.80
2023-01-19T05:27:29.795Z,9.13
2023-01-19T05:29:56.532Z,8.27
2023-01-19T05:32:23.196Z,9.02
2023-01-19T05:34:49.970Z,9.32
2023-01-19T05:37:16.676Z,9.13
2023-01-19T05:39:43.361Z,9.10
2023-01-19T05:42:10.113Z,9.88
2023-01-19T05:44:36.793Z,9.68
2023-01-19T05:47:03.592Z,9.32
2023-01-19T05:49:30.401Z,9.13
2023-01-19T05:51:57.076Z,9.57
2023-01-19T05:54:23.824Z,9.23
2023-01-19T05:56:50.531Z,10.05
2023-01-19T05:59:23.809Z,10.43
2023-01-19T06:01:54.272Z,9.88
2023-01-19T06:04:21.374Z,9.85
2023-01-19T06:06:48.669Z,3.88
2023-01-19T06:09:15.241Z,10.68
2023-01-19T06:11:41.817Z,10.52
2023-01-19T06:14:09.869Z,11.10
2023-01-19T06:16:36.586Z,10.52
2023-01-19T06:19:03.194Z,10.38
2023-01-19T06:21:29.817Z,10.93
2023-01-19T06:23:56.313Z,10.63
2023-01-19T06:26:23.134Z,10.30
2023-01-19T06:28:51.172Z,10.68
2023-01-19T06:31:18.126Z,11.00
2023-01-19T06:33:44.639Z,12.25
2023-01-19T06:36:11.140Z,11.00
2023-01-19T06:38:37.661Z,10.07
2023-01-19T06:41:04.756Z,10.90
2023-01-19T06:43:31.823Z,11.90
2023-01-19T06:46:00.456Z,11.27
2023-01-19T06:48:27.093Z,12.18
2023-01-19T06:50:53.617Z,12.20
2023-01-19T06:53:22.181Z,11.75
2023-01-19T06:55:48.824Z,10.63
2023-01-19T06:58:15.566Z,11.73
2023-01-19T07:00:42.883Z,11.65
2023-01-19T07:03:09.963Z,11.23
2023-01-19T07:05:36.754Z,11.48
2023-01-19T07:08:03.955Z,11.48
2023-01-19T07:11:21.618Z,12.15
2023-01-19T07:13:17.067Z,11.55
2023-01-19T07:15:44.198Z,12.18
2023-01-19T07:18:10.704Z,12.10
2023-01-19T07:20:38.110Z,12.35
2023-01-19T07:23:04.941Z,11.77
2023-01-19T07:25:31.861Z,11.52
2023-01-19T07:27:59.992Z,12.52
2023-01-19T07:30:26.840Z,11.32
2023-01-19T07:32:58.158Z,11.10
2023-01-19T07:35:25.302Z,11.00
2023-01-19T07:37:51.811Z,11.20
2023-01-19T07:40:18.432Z,11.68
2023-01-19T07:42:50.290Z,11.05
2023-01-19T07:45:17.499Z,11.93
2023-01-19T07:47:44.724Z,10.85
2023-01-19T07:50:12.833Z,11.73
2023-01-19T07:52:39.635Z,9.13
2023-01-19T07:55:06.533Z,12.18
2023-01-19T07:57:33.036Z,11.35
2023-01-19T07:59:59.947Z,12.23
2023-01-19T08:02:27.018Z,11.73
2023-01-19T08:04:53.892Z,12.05
2023-01-19T08:07:20.669Z,12.13
2023-01-19T08:09:47.384Z,11.10
2023-01-19T08:12:14.120Z,12.05
2023-01-19T08:14:40.820Z,11.10
2023-01-19T08:17:07.508Z,12.20
2023-01-19T08:19:34.216Z,11.13
2023-01-19T08:22:01.022Z,11.43
2023-01-19T08:24:29.043Z,12.50
2023-01-19T08:27:00.240Z,11.63
2023-01-19T08:29:29.624Z,11.38
2023-01-19T08:31:58.859Z,10.77
2023-01-19T08:34:25.987Z,12.18
2023-01-19T08:36:52.573Z,11.30
2023-01-19T08:39:19.114Z,10.80
2023-01-19T08:41:45.604Z,11.77
2023-01-19T08:44:12.117Z,11.00
2023-01-19T08:46:38.720Z,11.38
2023-01-19T08:49:05.278Z,10.30
2023-01-19T08:51:31.877Z,11.50
2023-01-19T08:53:58.464Z,11.88
2023-01-19T08:56:25.861Z,10.70
2023-01-19T08:59:07.634Z,11.95
2023-01-19T09:01:37.178Z,9.98
2023-01-19T09:04:04.021Z,10.70
2023-01-19T09:06:30.552Z,12.27
2023-01-19T09:08:57.785Z,11.43
2023-01-19T09:11:24.323Z,11.10
2023-01-19T09:13:51.058Z,11.07
2023-01-19T09:16:17.611Z,10.93
2023-01-19T09:18:45.874Z,11.60
2023-01-19T09:21:12.565Z,10.25
2023-01-19T09:23:39.190Z,10.80
2023-01-19T09:26:07.236Z,10.85
2023-01-19T09:28:34.144Z,11.80
2023-01-19T09:31:05.445Z,10.95
2023-01-19T09:33:32.066Z,11.02
2023-01-19T09:35:58.662Z,11.30
2023-01-19T09:38:25.837Z,11.27
2023-01-19T09:40:55.659Z,10.98
2023-01-19T09:43:32.627Z,11.00
2023-01-19T09:46:02.545Z,9.40
2023-01-19T09:48:28.981Z,10.85
2023-01-19T09:51:00.908Z,10.93
2023-01-19T09:53:53.226Z,10.85
2023-01-19T09:56:21.086Z,10.73
2023-01-19T09:58:49.578Z,10.35
2023-01-19T10:01:28.812Z,10.82
2023-01-19T10:04:30.068Z,10.32
2023-01-19T10:07:06.580Z,10.43
2023-01-19T10:09:44.374Z,10.77
2023-01-19T10:12:21.052Z,9.95
2023-01-19T10:15:18.018Z,9.82
2023-01-19T10:18:16.395Z,10.43
2023-01-19T10:20:49.365Z,10.07
2023-01-19T10:23:25.038Z,9.32
2023-01-19T10:25:52.245Z,8.57
2023-01-19T10:28:23.680Z,10.27
2023-01-19T10:30:51.452Z,9.02
2023-01-19T10:33:18.152Z,9.43
2023-01-19T10:35:45.204Z,10.35
2023-01-19T10:38:14.317Z,8.88
2023-01-19T10:40:59.345Z,9.63
2023-01-19T10:43:37.754Z,10.38
2023-01-19T10:46:18.080Z,9.63
2023-01-19T10:48:48.948Z,9.20
2023-01-19T10:51:16.261Z,9.02
2023-01-19T10:53:53.241Z,9.73
2023-01-19T10:56:24.754Z,9.38
2023-01-19T10:58:51.541Z,9.20
2023-01-19T11:01:21.814Z,8.55
2023-01-19T11:03:48.740Z,9.35
2023-01-19T11:06:21.121Z,8.60
2023-01-19T11:08:52.577Z,8.55
2023-01-19T11:11:24.615Z,8.98
2023-01-19T11:14:10.615Z,9.48
2023-01-19T11:16:38.865Z,8.70
2023-01-19T11:19:14.556Z,8.90
2023-01-19T11:21:41.085Z,7.57
2023-01-19T11:24:10.875Z,8.45
2023-01-19T11:26:44.208Z,8.70
2023-01-19T11:29:37.195Z,8.15
2023-01-19T11:32:19.031Z,9.45
2023-01-19T11:34:45.561Z,9.02
2023-01-19T11:37:30.509Z,9.90
2023-01-19T11:39:59.835Z,8.57
2023-01-19T11:42:30.373Z,7.60
2023-01-19T11:45:13.069Z,9.15
2023-01-19T11:47:45.045Z,8.90
2023-01-19T11:50:25.309Z,8.65
2023-01-19T11:52:59.154Z,8.52
2023-01-19T11:55:39.676Z,7.95
2023-01-19T11:58:06.462Z,9.13
2023-01-19T12:00:44.536Z,6.78
2023-01-19T12:03:34.611Z,7.63
2023-01-19T12:06:05.749Z,8.32
2023-01-19T12:08:39.753Z,9.52
2023-01-19T12:11:09.286Z,8.65
2023-01-19T12:13:37.501Z,8.90
2023-01-19T12:16:23.711Z,8.68
2023-01-19T12:19:03.573Z,7.45
2023-01-19T12:21:30.115Z,8.32
2023-01-19T12:24:05.619Z,8.93
2023-01-19T12:26:38.382Z,8.73
2023-01-19T12:29:11.199Z,8.40
2023-01-19T12:31:39.323Z,8.95
2023-01-19T12:34:27.172Z,8.57
2023-01-19T12:36:59.756Z,8.90
2023-01-19T12:39:26.568Z,8.93
2023-01-19T12:42:13.088Z,9.15
2023-01-19T12:44:41.509Z,8.40
2023-01-19T12:47:12.914Z,8.68
2023-01-19T12:49:45.560Z,8.52
2023-01-19T12:52:28.867Z,9.00
2023-01-19T12:55:02.136Z,8.73
2023-01-19T12:57:38.252Z,9.23
2023-01-19T13:00:23.895Z,7.15
2023-01-19T13:02:55.592Z,8.70
2023-01-19T13:05:33.472Z,8.52
2023-01-19T13:08:03.224Z,8.52
2023-01-19T13:11:02.191Z,8.65
2023-01-19T13:13:38.578Z,8.43
2023-01-19T13:16:20.515Z,7.85
2023-01-19T13:18:55.424Z,8.65
2023-01-19T13:21:34.656Z,8.75
2023-01-19T13:24:03.877Z,7.55
2023-01-19T13:26:33.418Z,7.70
2023-01-19T13:29:08.481Z,8.15
2023-01-19T13:31:37.372Z,6.93
2023-01-19T13:34:11.035Z,7.88
2023-01-19T13:36:43.452Z,8.00
2023-01-19T13:39:21.721Z,7.72
2023-01-19T13:41:52.099Z,7.22
2023-01-19T13:44:25.937Z,8.38
2023-01-19T13:46:53.920Z,8.30
2023-01-19T13:49:35.118Z,9.27
2023-01-19T13:52:05.395Z,9.70
2023-01-19T13:54:31.926Z,8.68
2023-01-19T13:56:58.416Z,8.80
2023-01-19T13:59:24.972Z,8.25
2023-01-19T14:01:54.125Z,8.65
2023-01-19T14:04:30.002Z,8.27
2023-01-19T14:07:00.756Z,8.75
2023-01-19T14:09:27.311Z,8.18
2023-01-19T14:12:17.662Z,8.25
2023-01-19T14:14:47.217Z,8.82
2023-01-19T14:17:21.785Z,8.02
2023-01-19T14:19:56.720Z,6.95
2023-01-19T14:22:45.735Z,7.97
2023-01-19T14:25:32.298Z,7.85
2023-01-19T14:28:42.159Z,7.15
2023-01-19T14:31:24.080Z,7.65
2023-01-19T14:33:53.636Z,7.25
2023-01-19T14:36:36.081Z,7.07
2023-01-19T14:39:04.777Z,7.13
2023-01-19T14:41:47.817Z,7.28
2023-01-19T14:44:31.905Z,7.03
2023-01-19T14:46:59.544Z,7.63
2023-01-19T14:49:40.022Z,7.35
2023-01-19T14:52:23.551Z,6.30
2023-01-19T14:54:50.668Z,7.00
2023-01-19T14:57:17.172Z,6.78
2023-01-19T14:59:48.336Z,7.57
2023-01-19T15:02:16.012Z,6.78
2023-01-19T15:04:42.540Z,6.50
2023-01-19T15:07:17.419Z,6.47
2023-01-19T15:10:05.559Z,6.20
2023-01-19T15:12:32.111Z,6.70
2023-01-19T15:14:58.624Z,6.68
2023-01-19T15:17:28.103Z,6.50
2023-01-19T15:19:56.149Z,7.25
2023-01-19T15:22:26.741Z,6.30
2023-01-19T15:24:57.366Z,6.88
2023-01-19T15:27:24.219Z,6.05
2023-01-19T15:29:50.701Z,5.80
2023-01-19T15:32:17.162Z,5.50
2023-01-19T15:34:43.684Z,5.43
2023-01-19T15:37:10.220Z,5.95
2023-01-19T15:39:36.743Z,5.43
2023-01-19T15:42:03.715Z,5.40
2023-01-19T15:44:30.467Z,6.18
2023-01-19T15:46:57.673Z,6.35
2023-01-19T15:49:24.621Z,7.32
2023-01-19T15:51:54.668Z,6.13
2023-01-19T15:54:23.967Z,5.35
2023-01-19T15:56:52.585Z,5.18
2023-01-19T15:59:19.316Z,5.13
2023-01-19T16:01:46.119Z,5.25
2023-01-19T16:04:13.186Z,4.88
2023-01-19T16:06:40.155Z,5.43
2023-01-19T16:09:07.639Z,4.88
2023-01-19T16:11:35.169Z,5.57
2023-01-19T16:14:02.378Z,5.20
2023-01-19T16:16:29.338Z,5.00
2023-01-19T16:18:56.537Z,4.70
2023-01-19T16:21:24.008Z,5.20
2023-01-19T16:23:51.319Z,4.97
2023-01-19T16:26:30.596Z,4.70
2023-01-19T16:28:59.753Z,5.18
2023-01-19T16:31:27.124Z,4.07
2023-01-19T16:33:53.789Z,4.72
2023-01-19T16:36:27.262Z,4.80
2023-01-19T16:38:54.753Z,4.40
2023-01-19T16:41:21.507Z,4.03
2023-01-19T16:43:54.534Z,4.50
2023-01-19T16:46:24.368Z,4.60
2023-01-19T16:48:51.965Z,4.47
2023-01-19T16:51:19.723Z,4.07
2023-01-19T16:53:48.822Z,4.00
2023-01-19T16:56:15.552Z,4.65
2023-01-19T16:58:42.889Z,4.15
2023-01-19T17:01:20.028Z,3.83
2023-01-19T17:03:47.361Z,3.95
2023-01-19T17:06:17.997Z,4.18
2023-01-19T17:08:44.841Z,4.00
2023-01-19T17:11:14.614Z,4.07
2023-01-19T17:13:41.447Z,4.20
2023-01-19T17:16:09.240Z,3.95
2023-01-19T17:18:37.791Z,3.65
2023-01-19T17:21:07.157Z,4.70
2023-01-19T17:23:36.055Z,3.97
2023-01-19T17:26:04.411Z,3.53
2023-01-19T17:28:31.431Z,3.95
2023-01-19T17:31:06.047Z,4.07
2023-01-19T17:33:33.561Z,4.32
2023-01-19T17:36:09.835Z,3.80
2023-01-19T17:38:36.948Z,3.58
2023-01-19T17:41:14.904Z,4.32
2023-01-19T17:43:41.988Z,3.63
2023-01-19T17:46:08.978Z,4.22
2023-01-19T17:48:35.707Z,4.65
2023-01-19T17:51:06.604Z,3.80
2023-01-19T17:53:35.584Z,3.58
2023-01-19T17:56:06.673Z,3.55
2023-01-19T17:58:33.605Z,3.53
2023-01-19T18:01:08.452Z,3.42
2023-01-19T18:03:35.217Z,3.70
2023-01-19T18:06:01.891Z,3.55
2023-01-19T18:08:28.548Z,3.25
2023-01-19T18:10:57.042Z,3.20
2023-01-19T18:13:24.572Z,3.13
2023-01-19T18:15:52.060Z,3.55
2023-01-19T18:18:19.122Z,3.30
2023-01-19T18:20:45.828Z,3.10
2023-01-19T18:23:13.524Z,3.05
2023-01-19T18:25:40.354Z,3.85
2023-01-19T18:28:07.427Z,2.75
2023-01-19T18:30:35.592Z,2.88
2023-01-19T18:33:02.683Z,3.05
2023-01-19T18:35:29.550Z,2.78
2023-01-19T18:37:58.373Z,2.95
2023-01-19T18:40:25.683Z,3.28
2023-01-19T18:42:52.361Z,2.90
2023-01-19T18:45:19.057Z,2.88
2023-01-19T18:47:45.738Z,2.70
2023-01-19T18:50:14.230Z,3.17
2023-01-19T18:52:41.085Z,3.30
2023-01-19T18:55:08.109Z,3.85
2023-01-19T18:57:35.655Z,4.32
2023-01-19T19:00:04.053Z,4.57
2023-01-19T19:02:30.789Z,3.35
2023-01-19T19:04:57.448Z,3.10
2023-01-19T19:07:24.537Z,2.72
2023-01-19T19:09:51.262Z,3.30
2023-01-19T19:12:17.963Z,2.60
2023-01-19T19:14:44.679Z,3.15
2023-01-19T19:17:11.330Z,2.97
2023-01-19T19:19:38.188Z,2.55
2023-01-19T19:22:04.964Z,3.08
2023-01-19T19:24:31.688Z,2.65
2023-01-19T19:26:58.458Z,2.55
2023-01-19T19:29:25.157Z,2.67
2023-01-19T19:31:51.817Z,2.42
2023-01-19T19:34:18.749Z,2.60
2023-01-19T19:36:46.022Z,2.53
2023-01-19T19:39:12.774Z,2.40
2023-01-19T19:41:39.565Z,2.35
2023-01-19T19:44:06.264Z,3.05
2023-01-19T19:46:32.997Z,2.67
2023-01-19T19:48:59.735Z,2.03
2023-01-19T19:51:28.062Z,2.72
2023-01-19T19:53:56.762Z,2.30
2023-01-19T19:56:25.161Z,2.40
2023-01-19T19:58:54.694Z,2.65
2023-01-19T20:01:27.003Z,2.35
2023-01-19T20:03:54.516Z,1.92
2023-01-19T20:06:25.323Z,2.10
2023-01-19T20:08:53.738Z,2.05
2023-01-19T20:11:23.285Z,1.90
2023-01-19T20:13:50.710Z,2.10
2023-01-19T20:16:21.513Z,2.40
2023-01-19T20:18:53.926Z,2.00
2023-01-19T20:21:24.671Z,2.40
2023-01-19T20:23:53.015Z,2.00
2023-01-19T20:26:22.808Z,1.67
2023-01-19T20:28:49.590Z,2.47
2023-01-19T20:31:19.136Z,2.17
2023-01-19T20:33:48.303Z,2.10
2023-01-19T20:36:15.266Z,2.17
2023-01-19T20:38:42.706Z,1.92
2023-01-19T20:41:11.062Z,1.80
2023-01-19T20:43:38.081Z,1.52
2023-01-19T20:46:05.318Z,1.40
2023-01-19T20:48:32.093Z,2.10
2023-01-19T20:51:00.633Z,1.83
2023-01-19T20:53:28.489Z,1.63
2023-01-19T20:55:55.198Z,1.80
2023-01-19T20:58:22.967Z,1.88
2023-01-19T21:00:50.269Z,2.05
2023-01-19T21:03:17.188Z,2.45
2023-01-19T21:05:46.537Z,2.05
2023-01-19T21:08:14.703Z,1.77
2023-01-19T21:10:41.953Z,1.88
2023-01-19T21:13:08.832Z,2.08
2023-01-19T21:15:35.610Z,2.03
2023-01-19T21:18:02.638Z,2.72
2023-01-19T21:20:32.917Z,2.63
2023-01-19T21:22:59.634Z,2.30
2023-01-19T21:25:26.297Z,2.45
2023-01-19T21:27:53.024Z,3.78
2023-01-19T21:30:19.801Z,3.92
2023-01-19T21:32:46.547Z,3.95
2023-01-19T21:35:13.615Z,4.00
2023-01-19T21:37:40.486Z,4.00
2023-01-19T21:40:07.809Z,5.13
2023-01-19T21:42:34.491Z,4.82
2023-01-19T21:45:01.188Z,5.38
2023-01-19T21:47:27.867Z,5.47
2023-01-19T21:49:54.794Z,5.40
2023-01-19T21:52:21.463Z,6.28
2023-01-19T21:54:48.141Z,6.15
2023-01-19T21:57:15.204Z,7.10
2023-01-19T21:59:41.981Z,5.63
2023-01-19T22:02:11.592Z,5.78
2023-01-19T22:04:39.368Z,7.13
2023-01-19T22:07:06.544Z,7.75
2023-01-19T22:09:34.998Z,7.78
2023-01-19T22:12:02.068Z,6.78
2023-01-19T22:14:29.083Z,7.50
2023-01-19T22:16:55.835Z,8.00
2023-01-19T22:19:22.741Z,7.97
2023-01-19T22:21:49.407Z,9.25
2023-01-19T22:24:16.052Z,8.25
2023-01-19T22:26:42.780Z,8.45
2023-01-19T22:29:11.256Z,7.35
2023-01-19T22:31:39.100Z,8.80
2023-01-19T22:34:10.176Z,9.43
2023-01-19T22:36:38.022Z,8.45
2023-01-19T22:39:08.389Z,8.95
2023-01-19T22:41:40.470Z,8.73
2023-01-19T22:44:11.682Z,8.88
2023-01-19T22:46:38.871Z,8.93
2023-01-19T22:49:07.945Z,9.15
2023-01-19T22:51:35.599Z,8.15
2023-01-19T22:54:02.902Z,7.17
2023-01-19T22:56:31.655Z,9.20
2023-01-19T22:58:59.407Z,8.10
2023-01-19T23:01:29.107Z,8.02
2023-01-19T23:03:56.088Z,8.20
2023-01-19T23:06:25.703Z,9.15
2023-01-19T23:08:54.860Z,9.20
2023-01-19T23:11:27.049Z,8.95
2023-01-19T23:13:53.986Z,9.32
2023-01-19T23:16:20.813Z,9.63
2023-01-19T23:18:51.759Z,10.15
2023-01-19T23:21:20.226Z,11.13
2023-01-19T23:23:46.821Z,10.02
2023-01-19T23:26:18.444Z,9.38
2023-01-19T23:28:46.241Z,11.45
2023-01-19T23:31:14.117Z,10.07
2023-01-19T23:33:41.586Z,11.13
2023-01-19T23:36:08.421Z,11.32
2023-01-19T23:38:34.925Z,10.95
2023-01-19T23:41:01.418Z,11.80
2023-01-19T23:43:27.894Z,10.48
2023-01-19T23:45:54.420Z,12.15
2023-01-19T23:48:21.163Z,11.60
2023-01-19T23:50:47.712Z,12.02
2023-01-19T23:53:14.207Z,11.63
2023-01-19T23:55:40.702Z,12.93
2023-01-19T23:58:07.221Z,12.73
